Terminal Aerodrome Forecast
Issued by NWS Louisville, KY

Home | Current Version | Previous Version | Text Only | Print | Product List | Glossary On
Versions: 1 2 3 4 5 6 7 8 9 10 11 12 13 14 15 16 17 18 19 20 21
000
FTUS43 KLMK 282300
TAFBWG
TAF
KBWG 282320Z 2900/2924 34005KT P6SM OVC010
     FM290200 02004KT 4SM BR OVC009
     FM291300 02004KT P6SM OVC012
     FM292000 02006KT P6SM BKN035=

USA.gov is the U.S. government's official web portal to all federal, state and local government web resources and services.